sensor_id;sensor_type;location;lat;lon;timestamp;pressure;altitude;pressure_sealevel;temperature;humidity
17781;BME280;8498;52.516;13.790;2023-06-26T00:00:27;101087.44;;;19.53;100.00
17781;BME280;8498;52.516;13.790;2023-06-26T00:05:49;101087.63;;;19.52;100.00
17781;BME280;8498;52.516;13.790;2023-06-26T00:11:13;101081.81;;;19.47;100.00
17781;BME280;8498;52.516;13.790;2023-06-26T00:16:35;101089.19;;;19.44;100.00
17781;BME280;8498;52.516;13.790;2023-06-26T00:21:58;101083.84;;;19.35;100.00
17781;BME280;8498;52.516;13.790;2023-06-26T00:27:21;101084.00;;;19.33;100.00
17781;BME280;8498;52.516;13.790;2023-06-26T00:32:43;101078.25;;;19.28;100.00
17781;BME280;8498;52.516;13.790;2023-06-26T00:38:06;101076.00;;;19.24;100.00
17781;BME280;8498;52.516;13.790;2023-06-26T00:43:29;101072.44;;;19.23;100.00
17781;BME280;8498;52.516;13.790;2023-06-26T00:48:52;101061.16;;;19.20;100.00
17781;BME280;8498;52.516;13.790;2023-06-26T00:54:15;101062.56;;;19.14;100.00
17781;BME280;8498;52.516;13.790;2023-06-26T00:59:43;101057.94;;;19.06;100.00
17781;BME280;8498;52.516;13.790;2023-06-26T01:05:06;101056.94;;;19.08;100.00
17781;BME280;8498;52.516;13.790;2023-06-26T01:10:30;101057.66;;;19.10;100.00
17781;BME280;8498;52.516;13.790;2023-06-26T01:15:55;101050.00;;;19.05;100.00
17781;BME280;8498;52.516;13.790;2023-06-26T01:21:19;101049.47;;;19.01;100.00
17781;BME280;8498;52.516;13.790;2023-06-26T01:26:43;101042.22;;;19.02;100.00
17781;BME280;8498;52.516;13.790;2023-06-26T01:32:09;101041.38;;;19.01;100.00
17781;BME280;8498;52.516;13.790;2023-06-26T01:37:31;101043.06;;;19.02;100.00
17781;BME280;8498;52.516;13.790;2023-06-26T01:42:55;101037.31;;;18.97;100.00
17781;BME280;8498;52.516;13.790;2023-06-26T01:48:22;101033.63;;;18.98;100.00
17781;BME280;8498;52.516;13.790;2023-06-26T01:53:50;101031.38;;;18.94;100.00
17781;BME280;8498;52.516;13.790;2023-06-26T01:59:15;101029.22;;;18.97;100.00
17781;BME280;8498;52.516;13.790;2023-06-26T02:04:40;101027.91;;;19.01;100.00
17781;BME280;8498;52.516;13.790;2023-06-26T02:10:06;101022.25;;;19.04;100.00
17781;BME280;8498;52.516;13.790;2023-06-26T02:15:28;101019.78;;;19.11;100.00
17781;BME280;8498;52.516;13.790;2023-06-26T02:20:51;101017.34;;;19.18;100.00
17781;BME280;8498;52.516;13.790;2023-06-26T02:26:16;101021.59;;;19.20;100.00
17781;BME280;8498;52.516;13.790;2023-06-26T02:31:38;101014.03;;;19.24;100.00
17781;BME280;8498;52.516;13.790;2023-06-26T02:37:01;101009.63;;;19.23;100.00
17781;BME280;8498;52.516;13.790;2023-06-26T02:42:24;101006.66;;;19.26;100.00
17781;BME280;8498;52.516;13.790;2023-06-26T02:47:47;101005.19;;;19.31;100.00
17781;BME280;8498;52.516;13.790;2023-06-26T02:53:10;101004.88;;;19.34;100.00
17781;BME280;8498;52.516;13.790;2023-06-26T02:58:35;101004.28;;;19.40;100.00
17781;BME280;8498;52.516;13.790;2023-06-26T03:03:58;101003.97;;;19.43;100.00
17781;BME280;8498;52.516;13.790;2023-06-26T03:09:23;100999.84;;;19.49;100.00
17781;BME280;8498;52.516;13.790;2023-06-26T03:14:46;100990.28;;;19.55;100.00
17781;BME280;8498;52.516;13.790;2023-06-26T03:20:09;100988.06;;;19.50;100.00
17781;BME280;8498;52.516;13.790;2023-06-26T03:25:42;100996.44;;;19.47;100.00
17781;BME280;8498;52.516;13.790;2023-06-26T03:31:25;100982.25;;;19.45;100.00
17781;BME280;8498;52.516;13.790;2023-06-26T03:36:48;100970.63;;;19.44;100.00
17781;BME280;8498;52.516;13.790;2023-06-26T03:42:10;100979.41;;;19.47;100.00
17781;BME280;8498;52.516;13.790;2023-06-26T03:47:33;100978.28;;;19.49;100.00
17781;BME280;8498;52.516;13.790;2023-06-26T03:52:57;100974.59;;;19.50;100.00
17781;BME280;8498;52.516;13.790;2023-06-26T03:58:21;100983.19;;;19.54;100.00
17781;BME280;8498;52.516;13.790;2023-06-26T04:03:44;100970.28;;;19.57;100.00
17781;BME280;8498;52.516;13.790;2023-06-26T04:09:07;100974.19;;;19.63;100.00
17781;BME280;8498;52.516;13.790;2023-06-26T04:14:29;100971.03;;;19.67;100.00
17781;BME280;8498;52.516;13.790;2023-06-26T04:19:52;100975.97;;;19.72;100.00
17781;BME280;8498;52.516;13.790;2023-06-26T04:25:14;100965.94;;;19.82;100.00
17781;BME280;8498;52.516;13.790;2023-06-26T04:30:37;100963.44;;;19.89;100.00
17781;BME280;8498;52.516;13.790;2023-06-26T04:36:01;100974.97;;;19.99;100.00
17781;BME280;8498;52.516;13.790;2023-06-26T04:41:26;100961.91;;;20.12;100.00
17781;BME280;8498;52.516;13.790;2023-06-26T04:46:48;100970.41;;;20.25;100.00
17781;BME280;8498;52.516;13.790;2023-06-26T04:52:14;100964.47;;;20.39;100.00
17781;BME280;8498;52.516;13.790;2023-06-26T04:57:36;100971.28;;;20.51;100.00
17781;BME280;8498;52.516;13.790;2023-06-26T05:02:58;100961.72;;;20.65;100.00
17781;BME280;8498;52.516;13.790;2023-06-26T05:08:24;100958.91;;;20.83;100.00
17781;BME280;8498;52.516;13.790;2023-06-26T05:13:49;100958.59;;;20.94;100.00
17781;BME280;8498;52.516;13.790;2023-06-26T05:19:12;100958.28;;;21.05;100.00
17781;BME280;8498;52.516;13.790;2023-06-26T05:24:37;100948.19;;;21.15;100.00
17781;BME280;8498;52.516;13.790;2023-06-26T05:30:01;100949.59;;;21.36;100.00
17781;BME280;8498;52.516;13.790;2023-06-26T05:35:24;100953.31;;;21.59;100.00
17781;BME280;8498;52.516;13.790;2023-06-26T05:40:50;100943.16;;;21.77;98.94
17781;BME280;8498;52.516;13.790;2023-06-26T05:46:13;100935.72;;;21.87;97.18
17781;BME280;8498;52.516;13.790;2023-06-26T05:51:36;100931.13;;;21.96;96.69
17781;BME280;8498;52.516;13.790;2023-06-26T05:56:58;100925.41;;;21.99;97.37
17781;BME280;8498;52.516;13.790;2023-06-26T06:02:24;100915.59;;;22.06;95.83
17781;BME280;8498;52.516;13.790;2023-06-26T06:07:46;100912.16;;;22.12;93.81
17781;BME280;8498;52.516;13.790;2023-06-26T06:13:09;100904.56;;;22.16;92.97
17781;BME280;8498;52.516;13.790;2023-06-26T06:18:31;100907.22;;;22.24;91.78
17781;BME280;8498;52.516;13.790;2023-06-26T06:23:54;100898.06;;;22.41;90.37
17781;BME280;8498;52.516;13.790;2023-06-26T06:29:16;100896.59;;;22.61;87.88
17781;BME280;8498;52.516;13.790;2023-06-26T06:34:41;100892.81;;;22.79;84.86
17781;BME280;8498;52.516;13.790;2023-06-26T06:40:05;100894.09;;;22.91;82.01
17781;BME280;8498;52.516;13.790;2023-06-26T06:45:28;100888.53;;;23.07;80.76
17781;BME280;8498;52.516;13.790;2023-06-26T06:50:51;100887.16;;;23.34;78.87
17781;BME280;8498;52.516;13.790;2023-06-26T06:56:13;100896.00;;;23.51;78.06
17781;BME280;8498;52.516;13.790;2023-06-26T07:01:35;100894.91;;;23.60;76.75
17781;BME280;8498;52.516;13.790;2023-06-26T07:06:57;100895.13;;;23.73;76.86
17781;BME280;8498;52.516;13.790;2023-06-26T07:12:20;100890.94;;;24.00;77.72
17781;BME280;8498;52.516;13.790;2023-06-26T07:17:42;100879.06;;;24.15;74.94
17781;BME280;8498;52.516;13.790;2023-06-26T07:23:06;100880.50;;;24.26;73.93
17781;BME280;8498;52.516;13.790;2023-06-26T07:28:28;100882.06;;;24.50;71.22
17781;BME280;8498;52.516;13.790;2023-06-26T07:33:51;100880.69;;;24.75;69.66
17781;BME280;8498;52.516;13.790;2023-06-26T07:39:13;100864.88;;;25.00;67.18
17781;BME280;8498;52.516;13.790;2023-06-26T07:44:43;100860.16;;;25.09;64.34
17781;BME280;8498;52.516;13.790;2023-06-26T07:50:06;100865.13;;;25.27;63.46
17781;BME280;8498;52.516;13.790;2023-06-26T07:55:29;100849.63;;;25.48;64.04
17781;BME280;8498;52.516;13.790;2023-06-26T08:00:51;100851.47;;;25.69;60.40
17781;BME280;8498;52.516;13.790;2023-06-26T08:06:14;100851.38;;;25.84;58.89
17781;BME280;8498;52.516;13.790;2023-06-26T08:11:36;100847.94;;;26.10;58.03
17781;BME280;8498;52.516;13.790;2023-06-26T08:16:59;100834.25;;;26.31;58.24
17781;BME280;8498;52.516;13.790;2023-06-26T08:22:22;100839.38;;;26.47;55.92
17781;BME280;8498;52.516;13.790;2023-06-26T08:27:44;100835.47;;;26.76;56.90
17781;BME280;8498;52.516;13.790;2023-06-26T08:33:07;100842.47;;;26.98;56.61
17781;BME280;8498;52.516;13.790;2023-06-26T08:38:34;100829.25;;;27.09;55.08
17781;BME280;8498;52.516;13.790;2023-06-26T08:43:57;100821.50;;;27.25;53.44
17781;BME280;8498;52.516;13.790;2023-06-26T08:49:29;100818.97;;;27.50;52.33
17781;BME280;8498;52.516;13.790;2023-06-26T08:54:58;100822.34;;;27.59;51.42
17781;BME280;8498;52.516;13.790;2023-06-26T09:00:21;100825.59;;;27.94;50.99
17781;BME280;8498;52.516;13.790;2023-06-26T09:05:44;100819.16;;;27.82;49.12
17781;BME280;8498;52.516;13.790;2023-06-26T09:11:07;100800.81;;;28.02;47.76
17781;BME280;8498;52.516;13.790;2023-06-26T09:16:29;100803.25;;;28.30;47.34
17781;BME280;8498;52.516;13.790;2023-06-26T09:21:52;100799.34;;;28.51;47.06
17781;BME280;8498;52.516;13.790;2023-06-26T09:27:15;100790.75;;;28.85;47.20
17781;BME280;8498;52.516;13.790;2023-06-26T09:32:38;100781.59;;;28.98;45.70
17781;BME280;8498;52.516;13.790;2023-06-26T09:38:01;100782.38;;;29.30;44.39
17781;BME280;8498;52.516;13.790;2023-06-26T09:43:23;100775.91;;;29.49;43.26
17781;BME280;8498;52.516;13.790;2023-06-26T09:48:46;100764.97;;;29.85;44.63
17781;BME280;8498;52.516;13.790;2023-06-26T09:54:09;100764.38;;;30.02;43.41
17781;BME280;8498;52.516;13.790;2023-06-26T09:59:33;100763.38;;;30.14;42.72
17781;BME280;8498;52.516;13.790;2023-06-26T10:04:55;100750.47;;;30.63;41.94
17781;BME280;8498;52.516;13.790;2023-06-26T10:10:19;100749.72;;;30.97;41.23
17781;BME280;8498;52.516;13.790;2023-06-26T10:15:44;100738.50;;;30.99;41.06
17781;BME280;8498;52.516;13.790;2023-06-26T10:21:11;100738.06;;;31.25;39.64
17781;BME280;8498;52.516;13.790;2023-06-26T10:26:38;100730.66;;;31.49;41.10
17781;BME280;8498;52.516;13.790;2023-06-26T10:32:04;100721.72;;;31.65;38.64
17781;BME280;8498;52.516;13.790;2023-06-26T10:37:44;100710.91;;;31.87;37.74
17781;BME280;8498;52.516;13.790;2023-06-26T10:43:08;100706.13;;;32.23;39.20
17781;BME280;8498;52.516;13.790;2023-06-26T10:48:31;100704.66;;;32.32;36.41
17781;BME280;8498;52.516;13.790;2023-06-26T10:53:55;100685.09;;;32.28;35.50
17781;BME280;8498;52.516;13.790;2023-06-26T10:59:20;100684.53;;;32.60;36.38
17781;BME280;8498;52.516;13.790;2023-06-26T11:04:52;100684.38;;;33.00;36.51
17781;BME280;8498;52.516;13.790;2023-06-26T11:10:16;100679.09;;;33.32;36.42
17781;BME280;8498;52.516;13.790;2023-06-26T11:15:38;100660.38;;;33.56;34.48
17781;BME280;8498;52.516;13.790;2023-06-26T11:26:28;100657.88;;;33.54;34.61
17781;BME280;8498;52.516;13.790;2023-06-26T11:31:58;100660.50;;;34.09;34.48
17781;BME280;8498;52.516;13.790;2023-06-26T11:37:24;100648.19;;;34.44;34.56
17781;BME280;8498;52.516;13.790;2023-06-26T11:42:47;100647.16;;;34.55;33.56
17781;BME280;8498;52.516;13.790;2023-06-26T11:48:09;100636.41;;;34.58;34.10
17781;BME280;8498;52.516;13.790;2023-06-26T11:53:39;100622.44;;;34.70;33.55
17781;BME280;8498;52.516;13.790;2023-06-26T12:04:29;100606.25;;;33.44;36.52
17781;BME280;8498;52.516;13.790;2023-06-26T12:09:52;100596.31;;;34.14;34.92
17781;BME280;8498;52.516;13.790;2023-06-26T12:15:16;100580.84;;;34.77;35.59
17781;BME280;8498;52.516;13.790;2023-06-26T12:20:45;100571.28;;;34.57;36.05
17781;BME280;8498;52.516;13.790;2023-06-26T12:26:20;100562.09;;;34.42;37.20
17781;BME280;8498;52.516;13.790;2023-06-26T12:31:45;100553.69;;;34.64;34.62
17781;BME280;8498;52.516;13.790;2023-06-26T12:37:10;100555.31;;;35.02;33.20
17781;BME280;8498;52.516;13.790;2023-06-26T12:42:33;100557.81;;;33.97;34.03
17781;BME280;8498;52.516;13.790;2023-06-26T12:48:06;100544.69;;;34.36;33.31
17781;BME280;8498;52.516;13.790;2023-06-26T12:53:29;100547.44;;;35.30;33.30
17781;BME280;8498;52.516;13.790;2023-06-26T12:58:51;100523.47;;;35.61;32.61
17781;BME280;8498;52.516;13.790;2023-06-26T13:04:14;100526.25;;;35.56;31.23
17781;BME280;8498;52.516;13.790;2023-06-26T13:09:37;100516.00;;;35.52;32.22
17781;BME280;8498;52.516;13.790;2023-06-26T13:15:00;100508.28;;;35.49;31.88
17781;BME280;8498;52.516;13.790;2023-06-26T13:20:23;100497.34;;;35.12;32.39
17781;BME280;8498;52.516;13.790;2023-06-26T13:25:45;100497.41;;;34.65;33.29
17781;BME280;8498;52.516;13.790;2023-06-26T13:31:08;100469.09;;;34.37;33.93
17781;BME280;8498;52.516;13.790;2023-06-26T13:36:30;100454.06;;;33.81;33.73
17781;BME280;8498;52.516;13.790;2023-06-26T13:41:57;100450.03;;;33.13;35.19
17781;BME280;8498;52.516;13.790;2023-06-26T13:47:19;100435.28;;;32.75;36.45
17781;BME280;8498;52.516;13.790;2023-06-26T13:52:42;100429.94;;;32.47;38.27
17781;BME280;8498;52.516;13.790;2023-06-26T13:58:05;100415.56;;;32.23;37.64
17781;BME280;8498;52.516;13.790;2023-06-26T14:03:27;100410.59;;;32.03;37.96
17781;BME280;8498;52.516;13.790;2023-06-26T14:08:50;100392.28;;;31.92;38.27
17781;BME280;8498;52.516;13.790;2023-06-26T14:14:13;100386.28;;;31.79;38.95
17781;BME280;8498;52.516;13.790;2023-06-26T14:19:35;100377.81;;;31.63;40.03
17781;BME280;8498;52.516;13.790;2023-06-26T14:24:57;100374.41;;;31.11;41.99
17781;BME280;8498;52.516;13.790;2023-06-26T14:30:20;100378.06;;;30.48;44.21
17781;BME280;8498;52.516;13.790;2023-06-26T14:35:42;100381.56;;;29.85;48.27
17781;BME280;8498;52.516;13.790;2023-06-26T14:41:05;100375.25;;;29.32;50.32
17781;BME280;8498;52.516;13.790;2023-06-26T14:46:28;100396.34;;;29.01;50.48
17781;BME280;8498;52.516;13.790;2023-06-26T14:51:51;100556.72;;;27.96;56.43
17781;BME280;8498;52.516;13.790;2023-06-26T14:57:13;100571.53;;;24.43;82.32
17781;BME280;8498;52.516;13.790;2023-06-26T15:02:36;100642.22;;;23.41;93.59
17781;BME280;8498;52.516;13.790;2023-06-26T15:07:58;100638.25;;;21.79;100.00
17781;BME280;8498;52.516;13.790;2023-06-26T15:13:21;100655.06;;;21.67;100.00
17781;BME280;8498;52.516;13.790;2023-06-26T15:18:43;100671.50;;;21.57;100.00
17781;BME280;8498;52.516;13.790;2023-06-26T15:24:06;100667.22;;;21.93;100.00
17781;BME280;8498;52.516;13.790;2023-06-26T15:29:29;100662.72;;;22.17;100.00
17781;BME280;8498;52.516;13.790;2023-06-26T15:34:51;100651.47;;;22.51;100.00
17781;BME280;8498;52.516;13.790;2023-06-26T15:40:16;100667.81;;;22.34;100.00
17781;BME280;8498;52.516;13.790;2023-06-26T15:45:39;100678.03;;;22.47;100.00
17781;BME280;8498;52.516;13.790;2023-06-26T15:51:02;100677.97;;;22.55;100.00
17781;BME280;8498;52.516;13.790;2023-06-26T15:56:24;100684.63;;;22.53;100.00
17781;BME280;8498;52.516;13.790;2023-06-26T16:01:47;100661.28;;;22.52;100.00
17781;BME280;8498;52.516;13.790;2023-06-26T16:07:11;100662.97;;;22.53;100.00
17781;BME280;8498;52.516;13.790;2023-06-26T16:12:33;100674.31;;;22.48;100.00
17781;BME280;8498;52.516;13.790;2023-06-26T16:17:56;100706.19;;;22.38;100.00
17781;BME280;8498;52.516;13.790;2023-06-26T16:23:19;100756.00;;;22.29;100.00
17781;BME280;8498;52.516;13.790;2023-06-26T16:28:44;100745.63;;;22.32;100.00
17781;BME280;8498;52.516;13.790;2023-06-26T16:34:10;100725.31;;;22.37;100.00
17781;BME280;8498;52.516;13.790;2023-06-26T16:39:33;100692.44;;;22.48;100.00
17781;BME280;8498;52.516;13.790;2023-06-26T16:44:56;100684.09;;;22.72;100.00
17781;BME280;8498;52.516;13.790;2023-06-26T16:50:18;100679.03;;;22.92;100.00
17781;BME280;8498;52.516;13.790;2023-06-26T16:55:41;100674.28;;;22.94;100.00
17781;BME280;8498;52.516;13.790;2023-06-26T17:01:04;100689.22;;;22.90;100.00
17781;BME280;8498;52.516;13.790;2023-06-26T17:06:26;100697.13;;;22.77;100.00
17781;BME280;8498;52.516;13.790;2023-06-26T17:11:49;100693.13;;;22.64;100.00
17781;BME280;8498;52.516;13.790;2023-06-26T17:17:11;100700.31;;;22.57;100.00
17781;BME280;8498;52.516;13.790;2023-06-26T17:22:37;100705.22;;;22.54;100.00
17781;BME280;8498;52.516;13.790;2023-06-26T17:28:00;100698.78;;;22.55;100.00
17781;BME280;8498;52.516;13.790;2023-06-26T17:33:23;100709.16;;;22.51;100.00
17781;BME280;8498;52.516;13.790;2023-06-26T17:38:45;100735.25;;;22.44;100.00
17781;BME280;8498;52.516;13.790;2023-06-26T17:44:08;100742.47;;;22.29;100.00
17781;BME280;8498;52.516;13.790;2023-06-26T17:49:31;100734.66;;;22.34;100.00
17781;BME280;8498;52.516;13.790;2023-06-26T17:54:53;100748.16;;;22.42;100.00
17781;BME280;8498;52.516;13.790;2023-06-26T18:00:16;100758.59;;;22.45;100.00
17781;BME280;8498;52.516;13.790;2023-06-26T18:05:38;100753.56;;;22.42;100.00
17781;BME280;8498;52.516;13.790;2023-06-26T18:11:01;100761.34;;;22.37;100.00
17781;BME280;8498;52.516;13.790;2023-06-26T18:16:23;100770.22;;;22.31;100.00
17781;BME280;8498;52.516;13.790;2023-06-26T18:21:45;100765.19;;;22.20;100.00
17781;BME280;8498;52.516;13.790;2023-06-26T18:27:08;100787.88;;;22.19;100.00
17781;BME280;8498;52.516;13.790;2023-06-26T18:32:30;100793.63;;;22.16;100.00
17781;BME280;8498;52.516;13.790;2023-06-26T18:37:53;100800.88;;;22.15;100.00
17781;BME280;8498;52.516;13.790;2023-06-26T18:43:15;100782.16;;;22.06;100.00
17781;BME280;8498;52.516;13.790;2023-06-26T18:48:38;100767.66;;;21.99;100.00
17781;BME280;8498;52.516;13.790;2023-06-26T18:54:01;100781.72;;;21.86;100.00
17781;BME280;8498;52.516;13.790;2023-06-26T18:59:24;100791.31;;;21.96;100.00
17781;BME280;8498;52.516;13.790;2023-06-26T19:04:48;100786.31;;;21.77;100.00
17781;BME280;8498;52.516;13.790;2023-06-26T19:10:10;100784.66;;;21.68;100.00
17781;BME280;8498;52.516;13.790;2023-06-26T19:15:37;100779.63;;;21.57;100.00
17781;BME280;8498;52.516;13.790;2023-06-26T19:21:00;100789.09;;;21.53;100.00
17781;BME280;8498;52.516;13.790;2023-06-26T19:26:22;100786.91;;;21.48;100.00
17781;BME280;8498;52.516;13.790;2023-06-26T19:31:45;100795.19;;;21.47;100.00
17781;BME280;8498;52.516;13.790;2023-06-26T19:37:10;100789.28;;;21.43;100.00
17781;BME280;8498;52.516;13.790;2023-06-26T19:42:33;100809.91;;;21.36;100.00
17781;BME280;8498;52.516;13.790;2023-06-26T19:47:56;100810.22;;;21.33;100.00
17781;BME280;8498;52.516;13.790;2023-06-26T19:53:19;100816.34;;;21.27;100.00
17781;BME280;8498;52.516;13.790;2023-06-26T19:58:42;100820.72;;;21.20;100.00
17781;BME280;8498;52.516;13.790;2023-06-26T20:04:05;100810.22;;;21.17;100.00
17781;BME280;8498;52.516;13.790;2023-06-26T20:09:28;100819.50;;;21.14;100.00
17781;BME280;8498;52.516;13.790;2023-06-26T20:14:53;100813.97;;;21.24;100.00
17781;BME280;8498;52.516;13.790;2023-06-26T20:20:15;100824.56;;;21.09;100.00
17781;BME280;8498;52.516;13.790;2023-06-26T20:25:38;100828.28;;;21.08;100.00
17781;BME280;8498;52.516;13.790;2023-06-26T20:31:01;100830.97;;;21.00;100.00
17781;BME280;8498;52.516;13.790;2023-06-26T20:36:23;100826.91;;;20.80;100.00
17781;BME280;8498;52.516;13.790;2023-06-26T20:41:46;100820.31;;;20.66;100.00
17781;BME280;8498;52.516;13.790;2023-06-26T20:47:09;100828.75;;;20.63;99.51
17781;BME280;8498;52.516;13.790;2023-06-26T20:52:38;100819.44;;;20.58;99.96
17781;BME280;8498;52.516;13.790;2023-06-26T20:58:00;100816.16;;;20.30;100.00
17781;BME280;8498;52.516;13.790;2023-06-26T21:03:23;100822.66;;;20.11;100.00
17781;BME280;8498;52.516;13.790;2023-06-26T21:08:47;100834.44;;;20.02;100.00
17781;BME280;8498;52.516;13.790;2023-06-26T21:14:09;100846.06;;;20.02;100.00
17781;BME280;8498;52.516;13.790;2023-06-26T21:19:32;100848.19;;;19.91;95.96
17781;BME280;8498;52.516;13.790;2023-06-26T21:24:55;100851.25;;;19.96;97.27
17781;BME280;8498;52.516;13.790;2023-06-26T21:30:17;100851.75;;;19.91;93.14
17781;BME280;8498;52.516;13.790;2023-06-26T21:35:40;100865.94;;;19.75;88.35
17781;BME280;8498;52.516;13.790;2023-06-26T21:41:06;100874.72;;;19.77;86.83
17781;BME280;8498;52.516;13.790;2023-06-26T21:46:28;100882.63;;;19.71;89.97
17781;BME280;8498;52.516;13.790;2023-06-26T21:51:51;100868.41;;;19.43;89.46
17781;BME280;8498;52.516;13.790;2023-06-26T21:57:15;100881.81;;;19.35;91.51
17781;BME280;8498;52.516;13.790;2023-06-26T22:02:39;100891.97;;;19.23;93.90
17781;BME280;8498;52.516;13.790;2023-06-26T22:08:02;100886.59;;;19.23;91.41
17781;BME280;8498;52.516;13.790;2023-06-26T22:13:26;100885.81;;;19.13;85.10
17781;BME280;8498;52.516;13.790;2023-06-26T22:18:48;100892.34;;;19.11;83.59
17781;BME280;8498;52.516;13.790;2023-06-26T22:24:11;100894.44;;;19.17;86.45
17781;BME280;8498;52.516;13.790;2023-06-26T22:29:33;100891.28;;;19.03;81.87
17781;BME280;8498;52.516;13.790;2023-06-26T22:34:57;100896.97;;;19.00;82.21
17781;BME280;8498;52.516;13.790;2023-06-26T22:40:19;100892.06;;;18.78;80.15
17781;BME280;8498;52.516;13.790;2023-06-26T22:45:42;100881.28;;;18.78;78.40
17781;BME280;8498;52.516;13.790;2023-06-26T22:51:04;100891.88;;;18.80;80.13
17781;BME280;8498;52.516;13.790;2023-06-26T22:56:27;100883.88;;;18.70;79.96
17781;BME280;8498;52.516;13.790;2023-06-26T23:01:50;100881.38;;;18.68;82.77
17781;BME280;8498;52.516;13.790;2023-06-26T23:07:13;100897.97;;;18.64;80.33
17781;BME280;8498;52.516;13.790;2023-06-26T23:12:36;100904.31;;;18.63;81.40
17781;BME280;8498;52.516;13.790;2023-06-26T23:17:58;100899.81;;;18.54;80.68
17781;BME280;8498;52.516;13.790;2023-06-26T23:23:21;100904.13;;;18.47;82.62
17781;BME280;8498;52.516;13.790;2023-06-26T23:28:44;100905.59;;;18.31;80.82
17781;BME280;8498;52.516;13.790;2023-06-26T23:34:06;100905.59;;;18.31;81.61
17781;BME280;8498;52.516;13.790;2023-06-26T23:39:30;100911.88;;;18.22;81.81
17781;BME280;8498;52.516;13.790;2023-06-26T23:44:52;100907.38;;;18.13;83.28
17781;BME280;8498;52.516;13.790;2023-06-26T23:50:15;100915.56;;;18.21;83.34
17781;BME280;8498;52.516;13.790;2023-06-26T23:55:38;100918.84;;;18.15;83.29
